sensor_id;sensor_type;location;lat;lon;timestamp;P1;durP1;ratioP1;P2;durP2;ratioP2
48006;SDS011;33771;48.180;11.400;2022-08-19T00:02:25;13.25;;;7.72;;
48006;SDS011;33771;48.180;11.400;2022-08-19T00:04:50;11.32;;;8.35;;
48006;SDS011;33771;48.180;11.400;2022-08-19T00:07:18;9.20;;;8.27;;
48006;SDS011;33771;48.180;11.400;2022-08-19T00:09:44;9.32;;;8.30;;
48006;SDS011;33771;48.180;11.400;2022-08-19T00:12:10;11.48;;;8.70;;
48006;SDS011;33771;48.180;11.400;2022-08-19T00:14:36;11.40;;;10.15;;
48006;SDS011;33771;48.180;11.400;2022-08-19T00:17:04;12.00;;;10.43;;
48006;SDS011;33771;48.180;11.400;2022-08-19T00:19:31;11.05;;;9.95;;
48006;SDS011;33771;48.180;11.400;2022-08-19T00:21:57;10.50;;;9.45;;
48006;SDS011;33771;48.180;11.400;2022-08-19T00:24:23;13.65;;;10.30;;
48006;SDS011;33771;48.180;11.400;2022-08-19T00:26:49;11.95;;;10.65;;
48006;SDS011;33771;48.180;11.400;2022-08-19T00:29:15;13.70;;;11.70;;
48006;SDS011;33771;48.180;11.400;2022-08-19T00:31:43;11.32;;;9.85;;
48006;SDS011;33771;48.180;11.400;2022-08-19T00:34:10;13.18;;;11.32;;
48006;SDS011;33771;48.180;11.400;2022-08-19T00:36:37;12.98;;;11.13;;
48006;SDS011;33771;48.180;11.400;2022-08-19T00:39:03;13.80;;;12.13;;
48006;SDS011;33771;48.180;11.400;2022-08-19T00:41:28;13.85;;;11.75;;
48006;SDS011;33771;48.180;11.400;2022-08-19T00:44:02;16.00;;;11.75;;
48006;SDS011;33771;48.180;11.400;2022-08-19T00:46:31;12.20;;;10.52;;
48006;SDS011;33771;48.180;11.400;2022-08-19T00:48:58;13.98;;;11.93;;
48006;SDS011;33771;48.180;11.400;2022-08-19T00:51:26;14.27;;;12.60;;
48006;SDS011;33771;48.180;11.400;2022-08-19T00:53:54;13.98;;;12.52;;
48006;SDS011;33771;48.180;11.400;2022-08-19T00:56:21;14.20;;;12.73;;
48006;SDS011;33771;48.180;11.400;2022-08-19T00:58:48;14.48;;;12.80;;
48006;SDS011;33771;48.180;11.400;2022-08-19T01:01:14;12.32;;;11.02;;
48006;SDS011;33771;48.180;11.400;2022-08-19T01:03:39;14.02;;;12.63;;
48006;SDS011;33771;48.180;11.400;2022-08-19T01:06:05;15.80;;;12.48;;
48006;SDS011;33771;48.180;11.400;2022-08-19T01:08:31;15.45;;;12.90;;
48006;SDS011;33771;48.180;11.400;2022-08-19T01:10:58;16.65;;;13.20;;
48006;SDS011;33771;48.180;11.400;2022-08-19T01:13:26;17.92;;;13.63;;
48006;SDS011;33771;48.180;11.400;2022-08-19T01:16:04;16.48;;;13.48;;
48006;SDS011;33771;48.180;11.400;2022-08-19T01:18:35;17.17;;;13.65;;
48006;SDS011;33771;48.180;11.400;2022-08-19T01:21:18;21.90;;;13.95;;
48006;SDS011;33771;48.180;11.400;2022-08-19T01:23:51;16.15;;;14.30;;
48006;SDS011;33771;48.180;11.400;2022-08-19T01:26:19;16.10;;;13.75;;
48006;SDS011;33771;48.180;11.400;2022-08-19T01:28:48;17.92;;;14.27;;
48006;SDS011;33771;48.180;11.400;2022-08-19T01:31:17;16.75;;;15.02;;
48006;SDS011;33771;48.180;11.400;2022-08-19T01:33:46;16.92;;;14.18;;
48006;SDS011;33771;48.180;11.400;2022-08-19T01:36:15;17.88;;;14.40;;
48006;SDS011;33771;48.180;11.400;2022-08-19T01:38:47;19.20;;;14.25;;
48006;SDS011;33771;48.180;11.400;2022-08-19T01:41:13;17.60;;;14.35;;
48006;SDS011;33771;48.180;11.400;2022-08-19T01:43:39;17.33;;;13.70;;
48006;SDS011;33771;48.180;11.400;2022-08-19T01:46:05;15.25;;;13.60;;
48006;SDS011;33771;48.180;11.400;2022-08-19T01:48:38;14.73;;;12.65;;
48006;SDS011;33771;48.180;11.400;2022-08-19T01:51:06;16.15;;;13.65;;
48006;SDS011;33771;48.180;11.400;2022-08-19T01:53:33;13.93;;;12.45;;
48006;SDS011;33771;48.180;11.400;2022-08-19T01:55:59;15.07;;;13.50;;
48006;SDS011;33771;48.180;11.400;2022-08-19T01:58:30;15.63;;;13.40;;
48006;SDS011;33771;48.180;11.400;2022-08-19T02:01:07;14.85;;;12.32;;
48006;SDS011;33771;48.180;11.400;2022-08-19T02:03:33;15.48;;;13.30;;
48006;SDS011;33771;48.180;11.400;2022-08-19T02:06:02;16.58;;;13.48;;
48006;SDS011;33771;48.180;11.400;2022-08-19T02:08:29;15.13;;;13.52;;
48006;SDS011;33771;48.180;11.400;2022-08-19T02:10:55;16.40;;;13.48;;
48006;SDS011;33771;48.180;11.400;2022-08-19T02:13:21;14.32;;;12.82;;
48006;SDS011;33771;48.180;11.400;2022-08-19T02:15:47;14.85;;;12.57;;
48006;SDS011;33771;48.180;11.400;2022-08-19T02:18:13;16.15;;;14.43;;
48006;SDS011;33771;48.180;11.400;2022-08-19T02:20:39;15.75;;;13.00;;
48006;SDS011;33771;48.180;11.400;2022-08-19T02:23:07;15.30;;;12.95;;
48006;SDS011;33771;48.180;11.400;2022-08-19T02:25:32;16.55;;;14.45;;
48006;SDS011;33771;48.180;11.400;2022-08-19T02:27:58;15.95;;;13.32;;
48006;SDS011;33771;48.180;11.400;2022-08-19T02:30:24;15.02;;;12.93;;
48006;SDS011;33771;48.180;11.400;2022-08-19T02:32:50;14.10;;;12.40;;
48006;SDS011;33771;48.180;11.400;2022-08-19T02:35:16;16.17;;;13.00;;
48006;SDS011;33771;48.180;11.400;2022-08-19T02:37:42;16.05;;;12.70;;
48006;SDS011;33771;48.180;11.400;2022-08-19T02:40:27;15.95;;;12.55;;
48006;SDS011;33771;48.180;11.400;2022-08-19T02:42:54;15.25;;;12.35;;
48006;SDS011;33771;48.180;11.400;2022-08-19T02:45:20;13.20;;;10.80;;
48006;SDS011;33771;48.180;11.400;2022-08-19T02:47:46;12.50;;;11.20;;
48006;SDS011;33771;48.180;11.400;2022-08-19T02:50:12;16.58;;;11.40;;
48006;SDS011;33771;48.180;11.400;2022-08-19T02:52:38;12.88;;;11.05;;
48006;SDS011;33771;48.180;11.400;2022-08-19T02:55:04;12.27;;;10.50;;
48006;SDS011;33771;48.180;11.400;2022-08-19T02:57:30;12.73;;;9.93;;
48006;SDS011;33771;48.180;11.400;2022-08-19T02:59:57;14.35;;;10.90;;
48006;SDS011;33771;48.180;11.400;2022-08-19T03:02:23;10.48;;;9.38;;
48006;SDS011;33771;48.180;11.400;2022-08-19T03:04:49;13.25;;;10.25;;
48006;SDS011;33771;48.180;11.400;2022-08-19T03:07:16;11.38;;;9.32;;
48006;SDS011;33771;48.180;11.400;2022-08-19T03:09:43;11.25;;;9.80;;
48006;SDS011;33771;48.180;11.400;2022-08-19T03:12:09;12.15;;;10.38;;
48006;SDS011;33771;48.180;11.400;2022-08-19T03:14:35;10.98;;;9.77;;
48006;SDS011;33771;48.180;11.400;2022-08-19T03:17:01;12.07;;;10.80;;
48006;SDS011;33771;48.180;11.400;2022-08-19T03:19:29;13.07;;;10.65;;
48006;SDS011;33771;48.180;11.400;2022-08-19T03:21:56;13.05;;;11.07;;
48006;SDS011;33771;48.180;11.400;2022-08-19T03:24:22;14.40;;;11.43;;
48006;SDS011;33771;48.180;11.400;2022-08-19T03:26:50;11.82;;;10.50;;
48006;SDS011;33771;48.180;11.400;2022-08-19T03:29:17;13.55;;;11.68;;
48006;SDS011;33771;48.180;11.400;2022-08-19T03:31:44;12.55;;;10.68;;
48006;SDS011;33771;48.180;11.400;2022-08-19T03:34:10;15.10;;;11.07;;
48006;SDS011;33771;48.180;11.400;2022-08-19T03:36:38;12.98;;;11.38;;
48006;SDS011;33771;48.180;11.400;2022-08-19T03:39:04;15.48;;;12.18;;
48006;SDS011;33771;48.180;11.400;2022-08-19T03:41:31;16.02;;;12.13;;
48006;SDS011;33771;48.180;11.400;2022-08-19T03:43:58;15.32;;;11.32;;
48006;SDS011;33771;48.180;11.400;2022-08-19T03:46:28;12.32;;;10.40;;
48006;SDS011;33771;48.180;11.400;2022-08-19T03:48:56;13.27;;;11.00;;
48006;SDS011;33771;48.180;11.400;2022-08-19T03:51:24;13.23;;;11.77;;
48006;SDS011;33771;48.180;11.400;2022-08-19T03:53:52;14.25;;;11.60;;
48006;SDS011;33771;48.180;11.400;2022-08-19T03:56:19;13.90;;;11.63;;
48006;SDS011;33771;48.180;11.400;2022-08-19T03:58:45;13.45;;;11.63;;
48006;SDS011;33771;48.180;11.400;2022-08-19T04:01:12;16.48;;;12.27;;
48006;SDS011;33771;48.180;11.400;2022-08-19T04:03:42;15.15;;;12.80;;
48006;SDS011;33771;48.180;11.400;2022-08-19T04:06:09;15.15;;;12.80;;
48006;SDS011;33771;48.180;11.400;2022-08-19T04:08:40;16.35;;;13.65;;
48006;SDS011;33771;48.180;11.400;2022-08-19T04:11:07;19.75;;;15.20;;
48006;SDS011;33771;48.180;11.400;2022-08-19T04:13:34;20.08;;;14.57;;
48006;SDS011;33771;48.180;11.400;2022-08-19T04:16:00;17.83;;;14.15;;
48006;SDS011;33771;48.180;11.400;2022-08-19T04:18:25;20.00;;;15.57;;
48006;SDS011;33771;48.180;11.400;2022-08-19T04:20:51;18.90;;;15.50;;
48006;SDS011;33771;48.180;11.400;2022-08-19T04:23:17;20.55;;;15.77;;
48006;SDS011;33771;48.180;11.400;2022-08-19T04:25:43;19.63;;;15.23;;
48006;SDS011;33771;48.180;11.400;2022-08-19T04:28:10;16.35;;;14.05;;
48006;SDS011;33771;48.180;11.400;2022-08-19T04:30:37;15.90;;;13.65;;
48006;SDS011;33771;48.180;11.400;2022-08-19T04:33:14;18.02;;;15.57;;
48006;SDS011;33771;48.180;11.400;2022-08-19T04:35:41;17.50;;;14.70;;
48006;SDS011;33771;48.180;11.400;2022-08-19T04:38:09;20.50;;;15.18;;
48006;SDS011;33771;48.180;11.400;2022-08-19T04:40:39;20.40;;;14.65;;
48006;SDS011;33771;48.180;11.400;2022-08-19T04:43:29;18.42;;;14.65;;
48006;SDS011;33771;48.180;11.400;2022-08-19T04:45:55;19.55;;;14.25;;
48006;SDS011;33771;48.180;11.400;2022-08-19T04:48:21;16.80;;;14.55;;
48006;SDS011;33771;48.180;11.400;2022-08-19T04:50:54;17.60;;;14.40;;
48006;SDS011;33771;48.180;11.400;2022-08-19T04:53:27;19.27;;;14.13;;
48006;SDS011;33771;48.180;11.400;2022-08-19T04:55:55;18.33;;;14.93;;
48006;SDS011;33771;48.180;11.400;2022-08-19T04:58:22;18.23;;;14.10;;
48006;SDS011;33771;48.180;11.400;2022-08-19T05:00:49;18.15;;;14.38;;
48006;SDS011;33771;48.180;11.400;2022-08-19T05:03:15;18.95;;;14.43;;
48006;SDS011;33771;48.180;11.400;2022-08-19T05:05:42;15.88;;;13.20;;
48006;SDS011;33771;48.180;11.400;2022-08-19T05:08:08;20.85;;;13.48;;
48006;SDS011;33771;48.180;11.400;2022-08-19T05:10:39;18.02;;;14.82;;
48006;SDS011;33771;48.180;11.400;2022-08-19T05:13:05;20.23;;;14.45;;
48006;SDS011;33771;48.180;11.400;2022-08-19T05:15:31;18.23;;;14.60;;
48006;SDS011;33771;48.180;11.400;2022-08-19T05:17:56;16.90;;;13.73;;
48006;SDS011;33771;48.180;11.400;2022-08-19T05:20:40;19.35;;;14.07;;
48006;SDS011;33771;48.180;11.400;2022-08-19T05:23:24;19.10;;;14.88;;
48006;SDS011;33771;48.180;11.400;2022-08-19T05:25:50;17.60;;;15.07;;
48006;SDS011;33771;48.180;11.400;2022-08-19T05:28:17;18.63;;;15.20;;
48006;SDS011;33771;48.180;11.400;2022-08-19T05:30:43;18.77;;;15.50;;
48006;SDS011;33771;48.180;11.400;2022-08-19T05:33:10;17.27;;;15.18;;
48006;SDS011;33771;48.180;11.400;2022-08-19T05:35:37;17.42;;;14.70;;
48006;SDS011;33771;48.180;11.400;2022-08-19T05:38:04;19.27;;;16.52;;
48006;SDS011;33771;48.180;11.400;2022-08-19T05:40:33;19.55;;;16.55;;
48006;SDS011;33771;48.180;11.400;2022-08-19T05:43:01;19.05;;;16.65;;
48006;SDS011;33771;48.180;11.400;2022-08-19T05:45:27;19.33;;;16.27;;
48006;SDS011;33771;48.180;11.400;2022-08-19T05:47:53;21.05;;;16.52;;
48006;SDS011;33771;48.180;11.400;2022-08-19T05:50:19;19.48;;;16.92;;
48006;SDS011;33771;48.180;11.400;2022-08-19T05:52:44;19.77;;;17.50;;
48006;SDS011;33771;48.180;11.400;2022-08-19T05:55:10;20.50;;;17.83;;
48006;SDS011;33771;48.180;11.400;2022-08-19T05:57:36;22.70;;;18.75;;
48006;SDS011;33771;48.180;11.400;2022-08-19T06:00:03;22.05;;;18.95;;
48006;SDS011;33771;48.180;11.400;2022-08-19T06:02:33;24.08;;;18.58;;
48006;SDS011;33771;48.180;11.400;2022-08-19T06:05:00;23.95;;;20.42;;
48006;SDS011;33771;48.180;11.400;2022-08-19T06:07:27;22.23;;;19.80;;
48006;SDS011;33771;48.180;11.400;2022-08-19T06:09:53;23.25;;;19.90;;
48006;SDS011;33771;48.180;11.400;2022-08-19T06:12:20;22.42;;;20.08;;
48006;SDS011;33771;48.180;11.400;2022-08-19T06:14:51;23.75;;;21.10;;
48006;SDS011;33771;48.180;11.400;2022-08-19T06:17:19;23.35;;;20.85;;
48006;SDS011;33771;48.180;11.400;2022-08-19T06:19:46;26.63;;;21.60;;
48006;SDS011;33771;48.180;11.400;2022-08-19T06:22:14;26.63;;;22.45;;
48006;SDS011;33771;48.180;11.400;2022-08-19T06:24:42;23.63;;;21.10;;
48006;SDS011;33771;48.180;11.400;2022-08-19T06:27:17;24.83;;;22.08;;
48006;SDS011;33771;48.180;11.400;2022-08-19T06:29:45;28.23;;;21.80;;
48006;SDS011;33771;48.180;11.400;2022-08-19T06:32:32;24.80;;;20.65;;
48006;SDS011;33771;48.180;11.400;2022-08-19T06:35:09;24.52;;;20.27;;
48006;SDS011;33771;48.180;11.400;2022-08-19T06:37:38;24.15;;;20.92;;
48006;SDS011;33771;48.180;11.400;2022-08-19T06:40:06;22.10;;;19.17;;
48006;SDS011;33771;48.180;11.400;2022-08-19T06:42:33;21.50;;;18.45;;
48006;SDS011;33771;48.180;11.400;2022-08-19T06:44:59;21.23;;;18.08;;
48006;SDS011;33771;48.180;11.400;2022-08-19T06:47:27;21.00;;;16.58;;
48006;SDS011;33771;48.180;11.400;2022-08-19T06:49:54;21.45;;;17.05;;
48006;SDS011;33771;48.180;11.400;2022-08-19T06:52:32;20.15;;;17.38;;
48006;SDS011;33771;48.180;11.400;2022-08-19T06:55:01;21.30;;;18.98;;
48006;SDS011;33771;48.180;11.400;2022-08-19T06:57:30;23.02;;;18.80;;
48006;SDS011;33771;48.180;11.400;2022-08-19T06:59:57;24.63;;;20.15;;
48006;SDS011;33771;48.180;11.400;2022-08-19T07:02:25;22.73;;;20.27;;
48006;SDS011;33771;48.180;11.400;2022-08-19T07:04:51;28.15;;;22.27;;
48006;SDS011;33771;48.180;11.400;2022-08-19T07:07:18;27.63;;;23.73;;
48006;SDS011;33771;48.180;11.400;2022-08-19T07:09:45;28.75;;;24.30;;
48006;SDS011;33771;48.180;11.400;2022-08-19T07:12:12;29.50;;;23.85;;
48006;SDS011;33771;48.180;11.400;2022-08-19T07:14:41;29.63;;;24.83;;
48006;SDS011;33771;48.180;11.400;2022-08-19T07:17:13;33.05;;;26.08;;
48006;SDS011;33771;48.180;11.400;2022-08-19T07:19:43;32.30;;;26.85;;
48006;SDS011;33771;48.180;11.400;2022-08-19T07:22:13;32.00;;;26.63;;
48006;SDS011;33771;48.180;11.400;2022-08-19T07:24:39;34.47;;;27.73;;
48006;SDS011;33771;48.180;11.400;2022-08-19T07:27:13;37.35;;;27.58;;
48006;SDS011;33771;48.180;11.400;2022-08-19T07:29:41;40.55;;;30.10;;
48006;SDS011;33771;48.180;11.400;2022-08-19T07:32:19;37.85;;;29.67;;
48006;SDS011;33771;48.180;11.400;2022-08-19T07:34:52;35.92;;;30.38;;
48006;SDS011;33771;48.180;11.400;2022-08-19T07:37:23;37.95;;;30.40;;
48006;SDS011;33771;48.180;11.400;2022-08-19T07:39:54;36.78;;;29.70;;
48006;SDS011;33771;48.180;11.400;2022-08-19T07:42:29;39.47;;;31.05;;
48006;SDS011;33771;48.180;11.400;2022-08-19T07:44:55;34.30;;;28.33;;
48006;SDS011;33771;48.180;11.400;2022-08-19T07:47:20;38.28;;;30.92;;
48006;SDS011;33771;48.180;11.400;2022-08-19T07:49:46;40.70;;;30.55;;
48006;SDS011;33771;48.180;11.400;2022-08-19T07:52:12;39.88;;;31.73;;
48006;SDS011;33771;48.180;11.400;2022-08-19T07:54:58;37.85;;;30.52;;
48006;SDS011;33771;48.180;11.400;2022-08-19T07:57:27;39.58;;;30.58;;
48006;SDS011;33771;48.180;11.400;2022-08-19T07:59:55;37.03;;;29.75;;
48006;SDS011;33771;48.180;11.400;2022-08-19T08:02:21;39.75;;;32.22;;
48006;SDS011;33771;48.180;11.400;2022-08-19T08:04:49;40.72;;;31.27;;
48006;SDS011;33771;48.180;11.400;2022-08-19T08:07:33;38.70;;;31.08;;
48006;SDS011;33771;48.180;11.400;2022-08-19T08:10:17;37.03;;;27.60;;
48006;SDS011;33771;48.180;11.400;2022-08-19T08:12:43;35.55;;;29.67;;
48006;SDS011;33771;48.180;11.400;2022-08-19T08:15:13;34.72;;;28.55;;
48006;SDS011;33771;48.180;11.400;2022-08-19T08:17:43;34.97;;;30.17;;
48006;SDS011;33771;48.180;11.400;2022-08-19T08:20:10;39.55;;;29.73;;
48006;SDS011;33771;48.180;11.400;2022-08-19T08:22:36;35.65;;;29.77;;
48006;SDS011;33771;48.180;11.400;2022-08-19T08:25:21;34.97;;;28.77;;
48006;SDS011;33771;48.180;11.400;2022-08-19T08:27:48;38.65;;;30.33;;
48006;SDS011;33771;48.180;11.400;2022-08-19T08:30:16;36.60;;;31.05;;
48006;SDS011;33771;48.180;11.400;2022-08-19T08:32:43;36.95;;;29.73;;
48006;SDS011;33771;48.180;11.400;2022-08-19T08:35:11;37.28;;;30.85;;
48006;SDS011;33771;48.180;11.400;2022-08-19T08:37:39;35.90;;;29.92;;
48006;SDS011;33771;48.180;11.400;2022-08-19T08:40:06;42.20;;;31.83;;
48006;SDS011;33771;48.180;11.400;2022-08-19T08:42:39;40.10;;;31.15;;
48006;SDS011;33771;48.180;11.400;2022-08-19T08:45:16;43.42;;;33.05;;
48006;SDS011;33771;48.180;11.400;2022-08-19T08:47:44;41.60;;;32.00;;
48006;SDS011;33771;48.180;11.400;2022-08-19T08:50:17;43.40;;;32.35;;
48006;SDS011;33771;48.180;11.400;2022-08-19T08:52:48;39.00;;;30.73;;
48006;SDS011;33771;48.180;11.400;2022-08-19T08:55:18;40.58;;;31.27;;
48006;SDS011;33771;48.180;11.400;2022-08-19T09:00:21;41.28;;;31.90;;
48006;SDS011;33771;48.180;11.400;2022-08-19T09:03:41;38.50;;;31.42;;
48006;SDS011;33771;48.180;11.400;2022-08-19T09:06:07;39.15;;;31.52;;
48006;SDS011;33771;48.180;11.400;2022-08-19T09:08:42;41.22;;;32.33;;
48006;SDS011;33771;48.180;11.400;2022-08-19T09:11:32;40.90;;;31.98;;
48006;SDS011;33771;48.180;11.400;2022-08-19T09:14:18;38.67;;;30.75;;
48006;SDS011;33771;48.180;11.400;2022-08-19T09:16:59;42.05;;;32.55;;
48006;SDS011;33771;48.180;11.400;2022-08-19T09:19:28;41.80;;;32.05;;
48006;SDS011;33771;48.180;11.400;2022-08-19T09:21:54;38.38;;;31.15;;
48006;SDS011;33771;48.180;11.400;2022-08-19T09:24:20;41.70;;;33.47;;
48006;SDS011;33771;48.180;11.400;2022-08-19T09:26:46;40.90;;;31.23;;
48006;SDS011;33771;48.180;11.400;2022-08-19T09:29:12;39.22;;;31.73;;
48006;SDS011;33771;48.180;11.400;2022-08-19T09:31:38;44.42;;;33.00;;
48006;SDS011;33771;48.180;11.400;2022-08-19T09:34:03;38.25;;;30.65;;
48006;SDS011;33771;48.180;11.400;2022-08-19T09:36:30;43.72;;;33.83;;
48006;SDS011;33771;48.180;11.400;2022-08-19T09:39:01;38.72;;;30.65;;
48006;SDS011;33771;48.180;11.400;2022-08-19T09:41:30;44.53;;;32.55;;
48006;SDS011;33771;48.180;11.400;2022-08-19T09:43:56;45.30;;;33.20;;
48006;SDS011;33771;48.180;11.400;2022-08-19T09:46:24;42.60;;;31.27;;
48006;SDS011;33771;48.180;11.400;2022-08-19T09:48:52;43.05;;;32.03;;
48006;SDS011;33771;48.180;11.400;2022-08-19T09:51:18;41.35;;;32.40;;
48006;SDS011;33771;48.180;11.400;2022-08-19T09:53:47;39.60;;;30.90;;
48006;SDS011;33771;48.180;11.400;2022-08-19T09:56:18;40.92;;;30.80;;
48006;SDS011;33771;48.180;11.400;2022-08-19T09:58:46;38.28;;;29.85;;
48006;SDS011;33771;48.180;11.400;2022-08-19T10:01:20;40.20;;;31.50;;
48006;SDS011;33771;48.180;11.400;2022-08-19T10:03:51;39.53;;;30.85;;
48006;SDS011;33771;48.180;11.400;2022-08-19T10:06:19;35.30;;;27.40;;
48006;SDS011;33771;48.180;11.400;2022-08-19T10:08:49;34.25;;;26.00;;
48006;SDS011;33771;48.180;11.400;2022-08-19T10:11:16;32.20;;;25.63;;
48006;SDS011;33771;48.180;11.400;2022-08-19T10:13:43;34.10;;;24.20;;
48006;SDS011;33771;48.180;11.400;2022-08-19T10:16:11;30.10;;;23.70;;
48006;SDS011;33771;48.180;11.400;2022-08-19T10:18:39;28.85;;;22.63;;
48006;SDS011;33771;48.180;11.400;2022-08-19T10:23:39;28.73;;;21.25;;
48006;SDS011;33771;48.180;11.400;2022-08-19T10:26:09;23.05;;;17.27;;
48006;SDS011;33771;48.180;11.400;2022-08-19T10:28:36;20.50;;;17.05;;
48006;SDS011;33771;48.180;11.400;2022-08-19T10:31:06;19.70;;;16.92;;
48006;SDS011;33771;48.180;11.400;2022-08-19T10:33:33;20.85;;;16.42;;
48006;SDS011;33771;48.180;11.400;2022-08-19T10:36:01;18.55;;;14.95;;
48006;SDS011;33771;48.180;11.400;2022-08-19T10:38:29;16.17;;;12.85;;
48006;SDS011;33771;48.180;11.400;2022-08-19T10:40:54;15.02;;;12.68;;
48006;SDS011;33771;48.180;11.400;2022-08-19T10:43:20;12.60;;;11.07;;
48006;SDS011;33771;48.180;11.400;2022-08-19T10:45:55;10.88;;;8.95;;
48006;SDS011;33771;48.180;11.400;2022-08-19T10:48:22;9.70;;;8.70;;
48006;SDS011;33771;48.180;11.400;2022-08-19T10:50:47;9.45;;;7.15;;
48006;SDS011;33771;48.180;11.400;2022-08-19T10:53:31;7.73;;;6.60;;
48006;SDS011;33771;48.180;11.400;2022-08-19T10:55:57;6.55;;;5.85;;
48006;SDS011;33771;48.180;11.400;2022-08-19T10:58:41;7.35;;;6.47;;
48006;SDS011;33771;48.180;11.400;2022-08-19T11:01:06;5.88;;;4.93;;
48006;SDS011;33771;48.180;11.400;2022-08-19T11:03:32;5.28;;;4.78;;
48006;SDS011;33771;48.180;11.400;2022-08-19T11:06:05;7.68;;;5.65;;
48006;SDS011;33771;48.180;11.400;2022-08-19T11:08:32;5.50;;;4.88;;
48006;SDS011;33771;48.180;11.400;2022-08-19T11:11:00;5.03;;;4.40;;
48006;SDS011;33771;48.180;11.400;2022-08-19T11:13:28;5.57;;;4.60;;
48006;SDS011;33771;48.180;11.400;2022-08-19T11:16:06;4.93;;;4.43;;
48006;SDS011;33771;48.180;11.400;2022-08-19T11:18:37;5.05;;;4.55;;
48006;SDS011;33771;48.180;11.400;2022-08-19T11:23:44;4.45;;;3.88;;
48006;SDS011;33771;48.180;11.400;2022-08-19T11:26:10;3.22;;;2.75;;
48006;SDS011;33771;48.180;11.400;2022-08-19T11:28:40;3.20;;;2.63;;
48006;SDS011;33771;48.180;11.400;2022-08-19T11:31:14;3.50;;;2.90;;
48006;SDS011;33771;48.180;11.400;2022-08-19T11:33:42;3.75;;;2.85;;
48006;SDS011;33771;48.180;11.400;2022-08-19T11:36:08;3.17;;;2.60;;
48006;SDS011;33771;48.180;11.400;2022-08-19T11:38:37;2.38;;;2.17;;
48006;SDS011;33771;48.180;11.400;2022-08-19T11:41:05;3.10;;;2.42;;
48006;SDS011;33771;48.180;11.400;2022-08-19T11:43:32;2.95;;;2.30;;
48006;SDS011;33771;48.180;11.400;2022-08-19T11:45:58;2.42;;;2.10;;
48006;SDS011;33771;48.180;11.400;2022-08-19T11:48:25;2.30;;;2.10;;
48006;SDS011;33771;48.180;11.400;2022-08-19T11:50:53;2.20;;;2.00;;
48006;SDS011;33771;48.180;11.400;2022-08-19T11:53:23;2.35;;;1.90;;
48006;SDS011;33771;48.180;11.400;2022-08-19T11:55:49;2.50;;;2.30;;
48006;SDS011;33771;48.180;11.400;2022-08-19T11:58:18;2.65;;;2.17;;
48006;SDS011;33771;48.180;11.400;2022-08-19T12:00:44;2.30;;;2.10;;
48006;SDS011;33771;48.180;11.400;2022-08-19T12:03:11;2.42;;;1.80;;
48006;SDS011;33771;48.180;11.400;2022-08-19T12:05:38;2.88;;;2.00;;
48006;SDS011;33771;48.180;11.400;2022-08-19T12:08:05;2.83;;;2.13;;
48006;SDS011;33771;48.180;11.400;2022-08-19T12:10:32;3.15;;;2.00;;
48006;SDS011;33771;48.180;11.400;2022-08-19T12:12:57;2.63;;;2.00;;
48006;SDS011;33771;48.180;11.400;2022-08-19T12:15:23;2.10;;;1.60;;
48006;SDS011;33771;48.180;11.400;2022-08-19T12:17:49;2.67;;;1.80;;
48006;SDS011;33771;48.180;11.400;2022-08-19T12:20:14;2.25;;;2.00;;
48006;SDS011;33771;48.180;11.400;2022-08-19T12:22:42;2.78;;;1.92;;
48006;SDS011;33771;48.180;11.400;2022-08-19T12:25:09;1.92;;;1.50;;
48006;SDS011;33771;48.180;11.400;2022-08-19T12:27:36;3.03;;;1.80;;
48006;SDS011;33771;48.180;11.400;2022-08-19T12:30:03;2.20;;;2.00;;
48006;SDS011;33771;48.180;11.400;2022-08-19T12:32:29;2.70;;;2.13;;
48006;SDS011;33771;48.180;11.400;2022-08-19T12:34:55;2.72;;;2.40;;
48006;SDS011;33771;48.180;11.400;2022-08-19T12:37:20;3.88;;;2.40;;
48006;SDS011;33771;48.180;11.400;2022-08-19T12:39:46;3.33;;;2.63;;
48006;SDS011;33771;48.180;11.400;2022-08-19T12:42:12;2.28;;;2.08;;
48006;SDS011;33771;48.180;11.400;2022-08-19T12:44:39;3.03;;;2.70;;
48006;SDS011;33771;48.180;11.400;2022-08-19T12:47:07;3.00;;;2.25;;
48006;SDS011;33771;48.180;11.400;2022-08-19T12:49:36;2.90;;;2.25;;
48006;SDS011;33771;48.180;11.400;2022-08-19T12:52:04;3.40;;;2.30;;
48006;SDS011;33771;48.180;11.400;2022-08-19T12:54:33;2.78;;;2.47;;
48006;SDS011;33771;48.180;11.400;2022-08-19T12:56:59;2.88;;;2.20;;
48006;SDS011;33771;48.180;11.400;2022-08-19T12:59:26;3.28;;;2.70;;
48006;SDS011;33771;48.180;11.400;2022-08-19T13:01:52;3.72;;;2.00;;
48006;SDS011;33771;48.180;11.400;2022-08-19T13:04:17;2.38;;;1.98;;
48006;SDS011;33771;48.180;11.400;2022-08-19T13:06:43;2.88;;;2.15;;
48006;SDS011;33771;48.180;11.400;2022-08-19T13:09:09;2.70;;;2.30;;
48006;SDS011;33771;48.180;11.400;2022-08-19T13:11:34;3.13;;;2.50;;
48006;SDS011;33771;48.180;11.400;2022-08-19T13:14:09;3.20;;;2.65;;
48006;SDS011;33771;48.180;11.400;2022-08-19T13:16:36;3.17;;;2.60;;
48006;SDS011;33771;48.180;11.400;2022-08-19T13:19:02;3.15;;;2.30;;
48006;SDS011;33771;48.180;11.400;2022-08-19T13:21:30;3.60;;;2.80;;
48006;SDS011;33771;48.180;11.400;2022-08-19T13:23:56;3.35;;;3.00;;
48006;SDS011;33771;48.180;11.400;2022-08-19T13:26:22;3.42;;;2.65;;
48006;SDS011;33771;48.180;11.400;2022-08-19T13:28:48;3.05;;;2.75;;
48006;SDS011;33771;48.180;11.400;2022-08-19T13:31:35;4.05;;;2.50;;
48006;SDS011;33771;48.180;11.400;2022-08-19T13:34:28;4.25;;;2.42;;
48006;SDS011;33771;48.180;11.400;2022-08-19T13:36:56;4.32;;;3.22;;
48006;SDS011;33771;48.180;11.400;2022-08-19T13:39:22;4.63;;;3.20;;
48006;SDS011;33771;48.180;11.400;2022-08-19T13:41:48;4.30;;;3.05;;
48006;SDS011;33771;48.180;11.400;2022-08-19T13:44:18;5.72;;;4.15;;
48006;SDS011;33771;48.180;11.400;2022-08-19T13:46:45;6.63;;;3.35;;
48006;SDS011;33771;48.180;11.400;2022-08-19T13:49:17;4.70;;;4.20;;
48006;SDS011;33771;48.180;11.400;2022-08-19T13:51:43;5.43;;;4.30;;
48006;SDS011;33771;48.180;11.400;2022-08-19T13:54:14;5.07;;;4.00;;
48006;SDS011;33771;48.180;11.400;2022-08-19T13:56:42;5.13;;;4.53;;
48006;SDS011;33771;48.180;11.400;2022-08-19T13:59:09;5.07;;;4.20;;
48006;SDS011;33771;48.180;11.400;2022-08-19T14:01:37;6.40;;;4.40;;
48006;SDS011;33771;48.180;11.400;2022-08-19T14:04:08;4.47;;;4.07;;
48006;SDS011;33771;48.180;11.400;2022-08-19T14:06:34;4.40;;;4.00;;
48006;SDS011;33771;48.180;11.400;2022-08-19T14:09:05;4.07;;;3.67;;
48006;SDS011;33771;48.180;11.400;2022-08-19T14:11:30;4.18;;;3.78;;
48006;SDS011;33771;48.180;11.400;2022-08-19T14:13:56;3.72;;;3.30;;
48006;SDS011;33771;48.180;11.400;2022-08-19T14:16:22;3.58;;;3.28;;
48006;SDS011;33771;48.180;11.400;2022-08-19T14:18:47;4.40;;;3.13;;
48006;SDS011;33771;48.180;11.400;2022-08-19T14:21:20;3.30;;;3.00;;
48006;SDS011;33771;48.180;11.400;2022-08-19T14:23:50;3.17;;;2.88;;
48006;SDS011;33771;48.180;11.400;2022-08-19T14:26:16;3.20;;;2.65;;
48006;SDS011;33771;48.180;11.400;2022-08-19T14:28:43;4.65;;;3.13;;
48006;SDS011;33771;48.180;11.400;2022-08-19T14:31:12;4.22;;;3.33;;
48006;SDS011;33771;48.180;11.400;2022-08-19T14:33:48;3.67;;;3.13;;